createdAt,value
2019-03-13T00:01:30.996Z,0.90
2019-03-13T00:04:19.683Z,1.07
2019-03-13T00:07:27.571Z,1.27
2019-03-13T00:10:28.199Z,0.90
2019-03-13T00:13:28.506Z,1.03
2019-03-13T00:16:29.120Z,1.37
2019-03-13T00:19:29.705Z,1.40
2019-03-13T00:22:30.484Z,0.93
2019-03-13T00:25:31.285Z,1.20
2019-03-13T00:28:31.541Z,1.27
2019-03-13T00:31:32.053Z,1.20
2019-03-13T00:34:32.552Z,1.07
2019-03-13T00:37:33.680Z,0.80
2019-03-13T00:40:34.161Z,0.90
2019-03-13T00:43:34.715Z,0.80
2019-03-13T00:46:23.858Z,0.90
2019-03-13T00:49:31.797Z,0.80
2019-03-13T00:52:32.310Z,0.80
2019-03-13T00:55:32.880Z,0.63
2019-03-13T00:58:33.494Z,0.73
2019-03-13T01:04:48.414Z,0.30
2019-03-13T01:07:48.800Z,0.20
2019-03-13T01:10:49.189Z,0.10
2019-03-13T01:13:49.504Z,0.10
2019-03-13T01:16:49.901Z,0.50
2019-03-13T01:19:51.050Z,0.10
2019-03-13T01:22:52.250Z,0.10
2019-03-13T01:25:52.571Z,0.10
2019-03-13T01:28:53.809Z,0.17
2019-03-13T01:31:55.860Z,0.27
2019-03-13T01:34:57.935Z,0.00
2019-03-13T01:37:58.591Z,0.10
2019-03-13T01:40:58.975Z,0.00
2019-03-13T01:43:59.423Z,0.10
2019-03-13T01:47:00.085Z,0.07
2019-03-13T01:50:01.471Z,0.10
2019-03-13T01:53:01.801Z,0.10
2019-03-13T01:56:02.351Z,0.17
2019-03-13T01:59:02.915Z,0.20
2019-03-13T02:02:03.345Z,0.00
2019-03-13T02:05:04.065Z,0.10
2019-03-13T02:08:04.515Z,0.10
2019-03-13T02:11:04.876Z,0.10
2019-03-13T02:14:05.193Z,0.00
2019-03-13T02:17:05.576Z,0.00
2019-03-13T02:20:06.000Z,0.00
2019-03-13T02:23:07.225Z,0.20
2019-03-13T02:26:07.601Z,0.17
2019-03-13T02:29:07.884Z,0.00
2019-03-13T02:32:08.151Z,0.07
2019-03-13T02:35:09.016Z,0.30
2019-03-13T02:38:10.056Z,0.30
2019-03-13T02:41:10.880Z,0.23
2019-03-13T02:44:11.471Z,0.30
2019-03-13T02:47:11.849Z,0.50
2019-03-13T02:50:12.641Z,0.40
2019-03-13T02:53:12.905Z,0.40
2019-03-13T02:56:13.653Z,0.50
2019-03-13T02:59:14.087Z,0.60
2019-03-13T03:02:16.501Z,0.53
2019-03-13T03:05:17.196Z,0.70
2019-03-13T03:08:17.877Z,0.60
2019-03-13T03:11:18.377Z,0.67
2019-03-13T03:14:19.433Z,0.67
2019-03-13T03:17:19.805Z,0.90
2019-03-13T03:20:20.766Z,0.80
2019-03-13T03:23:21.363Z,0.70
2019-03-13T03:26:21.679Z,0.80
2019-03-13T03:29:21.974Z,1.10
2019-03-13T03:32:22.370Z,0.93
2019-03-13T03:35:22.879Z,1.10
2019-03-13T03:38:23.498Z,1.40
2019-03-13T03:41:24.062Z,1.10
2019-03-13T03:44:24.378Z,0.93
2019-03-13T03:47:25.694Z,1.30
2019-03-13T03:50:25.951Z,1.10
2019-03-13T03:53:26.373Z,1.20
2019-03-13T03:56:27.654Z,0.80
2019-03-13T03:59:29.905Z,1.10
2019-03-13T04:02:31.143Z,0.97
2019-03-13T04:05:31.590Z,1.00
2019-03-13T04:08:31.879Z,0.90
2019-03-13T04:11:32.191Z,0.87
2019-03-13T04:14:32.971Z,0.90
2019-03-13T04:17:33.492Z,0.70
2019-03-13T04:20:33.871Z,0.60
2019-03-13T04:23:34.573Z,1.03
2019-03-13T04:26:34.911Z,1.00
2019-03-13T04:29:35.366Z,0.83
2019-03-13T04:32:36.050Z,0.80
2019-03-13T04:35:36.697Z,0.87
2019-03-13T04:38:37.336Z,0.80
2019-03-13T04:41:37.665Z,0.70
2019-03-13T04:44:38.154Z,0.70
2019-03-13T04:47:38.806Z,0.77
2019-03-13T04:50:39.216Z,1.10
2019-03-13T04:53:39.516Z,1.00
2019-03-13T04:56:40.870Z,0.90
2019-03-13T04:59:41.554Z,0.90
2019-03-13T05:02:42.697Z,0.90
2019-03-13T05:05:43.289Z,1.00
2019-03-13T05:08:45.470Z,1.03
2019-03-13T05:11:45.855Z,0.97
2019-03-13T05:14:46.502Z,1.13
2019-03-13T05:17:47.202Z,0.53
2019-03-13T05:20:47.921Z,2.03
2019-03-13T05:23:49.118Z,1.23
2019-03-13T05:26:50.086Z,1.80
2019-03-13T05:29:50.738Z,1.17
2019-03-13T05:32:51.141Z,0.70
2019-03-13T05:35:51.876Z,1.60
2019-03-13T05:38:52.653Z,1.20
2019-03-13T05:41:53.110Z,1.00
2019-03-13T05:44:53.662Z,1.47
2019-03-13T05:47:53.997Z,1.10
2019-03-13T05:50:55.132Z,0.90
2019-03-13T05:53:55.346Z,0.87
2019-03-13T05:56:55.718Z,1.00
2019-03-13T05:59:56.401Z,1.00
2019-03-13T06:02:56.861Z,0.80
2019-03-13T06:05:57.636Z,0.97
2019-03-13T06:08:58.736Z,0.87
2019-03-13T06:11:59.177Z,1.20
2019-03-13T06:15:03.406Z,0.90
2019-03-13T06:17:50.647Z,1.00
2019-03-13T06:20:58.537Z,1.47
2019-03-13T06:23:59.214Z,1.20
2019-03-13T06:26:59.707Z,1.50
2019-03-13T06:30:00.544Z,1.40
2019-03-13T06:33:00.926Z,1.23
2019-03-13T06:36:01.318Z,1.40
2019-03-13T06:39:01.674Z,1.50
2019-03-13T06:42:02.177Z,1.40
2019-03-13T06:45:02.527Z,1.30
2019-03-13T06:48:03.384Z,1.20
2019-03-13T06:51:04.255Z,1.33
2019-03-13T06:54:04.743Z,2.03
2019-03-13T06:57:05.090Z,1.00
2019-03-13T07:00:12.847Z,1.20
2019-03-13T07:03:39.917Z,0.80
2019-03-13T07:06:41.902Z,1.07
2019-03-13T07:09:44.292Z,0.80
2019-03-13T07:12:47.157Z,0.67
2019-03-13T07:15:52.784Z,0.80
2019-03-13T07:18:57.768Z,0.80
2019-03-13T07:25:34.898Z,0.80
2019-03-13T07:28:54.678Z,0.93
2019-03-13T07:35:42.414Z,0.73
2019-03-13T07:38:44.791Z,0.80
2019-03-13T07:41:50.170Z,0.70
2019-03-13T07:45:10.007Z,0.93
2019-03-13T07:48:33.617Z,0.60
2019-03-13T07:51:35.745Z,0.87
2019-03-13T07:54:56.374Z,0.80
2019-03-13T07:58:01.634Z,0.80
2019-03-13T08:01:21.257Z,0.60
2019-03-13T08:04:26.778Z,0.90
2019-03-13T08:07:29.231Z,0.70
2019-03-13T08:10:34.594Z,0.80
2019-03-13T08:13:54.117Z,0.90
2019-03-13T08:17:03.120Z,0.80
2019-03-13T08:23:32.574Z,0.93
2019-03-13T08:30:06.834Z,0.90
2019-03-13T08:33:08.724Z,0.70
2019-03-13T08:36:11.274Z,1.10
2019-03-13T08:39:31.735Z,0.83
2019-03-13T08:42:51.903Z,0.70
2019-03-13T08:46:11.984Z,0.90
2019-03-13T08:49:32.060Z,0.60
2019-03-13T08:52:52.235Z,0.70
2019-03-13T08:55:54.585Z,0.90
2019-03-13T09:02:27.570Z,0.80
2019-03-13T09:09:15.037Z,0.70
2019-03-13T09:15:48.391Z,0.80
2019-03-13T09:18:53.621Z,0.73
2019-03-13T09:25:22.993Z,0.83
2019-03-13T09:28:28.481Z,0.97
2019-03-13T09:35:05.822Z,0.70
2019-03-13T09:38:11.218Z,0.80
2019-03-13T09:44:58.754Z,0.60
2019-03-13T09:48:01.608Z,0.70
2019-03-13T09:51:06.666Z,0.90
2019-03-13T09:54:26.803Z,0.80
2019-03-13T09:57:29.473Z,1.00
2019-03-13T10:00:49.572Z,0.97
2019-03-13T10:04:09.694Z,0.97
2019-03-13T10:07:12.236Z,1.07
2019-03-13T10:10:32.155Z,1.00
2019-03-13T10:13:52.555Z,0.80
2019-03-13T10:17:09.896Z,0.70
2019-03-13T10:20:05.362Z,1.23
2019-03-13T10:23:24.872Z,1.00
2019-03-13T10:26:48.270Z,0.63
2019-03-13T10:30:11.412Z,1.13
2019-03-13T10:33:17.689Z,0.90
2019-03-13T10:36:37.130Z,0.90
2019-03-13T10:40:00.786Z,0.90
2019-03-13T10:43:09.211Z,1.00
2019-03-13T10:46:29.206Z,0.80
2019-03-13T10:49:49.538Z,0.90
2019-03-13T10:52:52.232Z,1.20
2019-03-13T10:59:29.490Z,1.03
2019-03-13T11:02:49.507Z,1.10
2019-03-13T11:06:09.951Z,1.23
2019-03-13T11:09:12.417Z,1.30
2019-03-13T11:12:32.317Z,1.20
2019-03-13T11:15:35.017Z,1.00
2019-03-13T11:18:37.145Z,1.20
2019-03-13T11:21:57.154Z,1.20
2019-03-13T11:25:00.050Z,1.30
2019-03-13T11:31:23.297Z,3.23
2019-03-13T11:38:04.047Z,2.00
2019-03-13T11:41:09.589Z,1.30
2019-03-13T11:44:29.890Z,1.20
2019-03-13T11:47:41.678Z,1.33
2019-03-13T11:50:38.636Z,1.20
2019-03-13T11:53:41.072Z,1.03
2019-03-13T11:56:46.457Z,1.40
2019-03-13T12:00:06.838Z,1.37
2019-03-13T12:03:08.897Z,1.40
2019-03-13T12:06:29.223Z,1.40
2019-03-13T12:09:34.958Z,1.30
2019-03-13T12:12:37.349Z,1.77
2019-03-13T12:15:42.827Z,1.73
2019-03-13T12:19:02.788Z,1.40
2019-03-13T12:22:22.982Z,1.10
2019-03-13T12:25:25.307Z,1.00
2019-03-13T12:28:44.983Z,1.33
2019-03-13T12:35:06.379Z,1.40
2019-03-13T12:41:53.965Z,1.23
2019-03-13T12:48:27.989Z,1.20
2019-03-13T12:55:04.820Z,1.53
2019-03-13T12:58:25.177Z,1.10
2019-03-13T13:01:30.764Z,1.60
2019-03-13T13:04:50.827Z,1.20
2019-03-13T13:07:55.694Z,1.50
2019-03-13T13:11:15.327Z,1.70
2019-03-13T13:14:24.394Z,1.30
2019-03-13T13:17:26.764Z,1.50
2019-03-13T13:20:27.371Z,1.20
2019-03-13T13:23:27.714Z,1.63
2019-03-13T13:26:28.258Z,1.80
2019-03-13T13:29:28.743Z,1.63
2019-03-13T13:32:29.371Z,2.00
2019-03-13T13:35:29.982Z,1.60
2019-03-13T13:38:30.598Z,1.87
2019-03-13T13:41:31.151Z,1.50
2019-03-13T13:44:31.483Z,1.37
2019-03-13T13:47:31.755Z,1.40
2019-03-13T13:50:32.429Z,1.57
2019-03-13T13:53:32.896Z,1.77
2019-03-13T13:56:33.368Z,1.90
2019-03-13T13:59:34.104Z,1.83
2019-03-13T14:02:34.802Z,1.70
2019-03-13T14:05:35.589Z,1.63
2019-03-13T14:08:36.350Z,2.27
2019-03-13T14:11:37.039Z,1.57
2019-03-13T14:14:37.921Z,1.50
2019-03-13T14:17:38.208Z,1.60
2019-03-13T14:20:38.752Z,1.13
2019-03-13T14:23:39.442Z,1.13
2019-03-13T14:26:39.927Z,1.00
2019-03-13T14:29:40.354Z,1.10
2019-03-13T14:32:41.270Z,1.13
2019-03-13T14:35:41.834Z,1.13
2019-03-13T14:38:42.502Z,0.93
2019-03-13T14:41:43.312Z,0.93
2019-03-13T14:44:44.050Z,1.03
2019-03-13T14:47:44.565Z,0.93
2019-03-13T14:50:36.200Z,0.70
2019-03-13T14:53:42.808Z,0.90
2019-03-13T14:56:43.693Z,0.90
2019-03-13T14:59:44.171Z,1.00
2019-03-13T15:02:44.559Z,1.17
2019-03-13T15:05:45.878Z,1.20
2019-03-13T15:08:34.435Z,1.10
2019-03-13T15:11:42.335Z,1.10
2019-03-13T15:14:42.914Z,1.10
2019-03-13T15:17:43.522Z,1.10
2019-03-13T15:20:43.800Z,1.10
2019-03-13T15:23:44.482Z,0.83
2019-03-13T15:26:45.322Z,1.10
2019-03-13T15:29:45.650Z,1.00
2019-03-13T15:32:46.550Z,1.00
2019-03-13T15:35:47.101Z,1.00
2019-03-13T15:38:47.807Z,1.27
2019-03-13T15:41:48.187Z,1.10
2019-03-13T15:44:48.838Z,1.00
2019-03-13T15:47:49.345Z,1.03
2019-03-13T15:50:49.817Z,1.33
2019-03-13T15:53:50.405Z,1.50
2019-03-13T15:59:59.645Z,1.27
2019-03-13T16:03:00.076Z,2.00
2019-03-13T16:06:00.602Z,1.73
2019-03-13T16:09:01.305Z,1.60
2019-03-13T16:12:01.751Z,1.40
2019-03-13T16:15:02.079Z,1.17
2019-03-13T16:18:02.882Z,1.20
2019-03-13T16:21:03.994Z,1.47
2019-03-13T16:24:04.825Z,1.23
2019-03-13T16:27:05.307Z,1.30
2019-03-13T16:30:06.583Z,1.40
2019-03-13T16:33:06.885Z,1.20
2019-03-13T16:36:07.935Z,1.70
2019-03-13T16:39:08.499Z,1.20
2019-03-13T16:42:08.978Z,1.10
2019-03-13T16:45:09.590Z,1.00
2019-03-13T16:48:10.000Z,1.20
2019-03-13T16:51:10.315Z,1.13
2019-03-13T16:54:11.588Z,1.10
2019-03-13T16:57:12.153Z,1.10
2019-03-13T17:00:12.965Z,1.17
2019-03-13T17:03:14.314Z,1.07
2019-03-13T17:06:14.835Z,1.37
2019-03-13T17:09:15.609Z,1.30
2019-03-13T17:12:16.920Z,1.20
2019-03-13T17:15:17.525Z,1.23
2019-03-13T17:18:18.321Z,1.30
2019-03-13T17:21:18.780Z,1.00
2019-03-13T17:24:19.827Z,1.27
2019-03-13T17:27:22.834Z,10.13
2019-03-13T17:30:23.234Z,3.50
2019-03-13T17:33:24.074Z,1.60
2019-03-13T17:36:24.348Z,1.40
2019-03-13T17:39:25.486Z,1.60
2019-03-13T17:42:26.154Z,1.63
2019-03-13T17:45:26.502Z,1.70
2019-03-13T17:48:27.656Z,1.33
2019-03-13T17:51:28.602Z,1.40
2019-03-13T17:54:29.431Z,1.37
2019-03-13T17:57:29.746Z,1.30
2019-03-13T18:00:31.714Z,1.50
2019-03-13T18:03:32.850Z,1.47
2019-03-13T18:06:33.229Z,1.53
2019-03-13T18:09:33.702Z,1.57
2019-03-13T18:12:34.066Z,1.30
2019-03-13T18:15:34.524Z,1.60
2019-03-13T18:18:35.095Z,1.10
2019-03-13T18:21:36.255Z,1.23
2019-03-13T18:24:36.989Z,1.30
2019-03-13T18:27:37.540Z,1.20
2019-03-13T18:30:38.141Z,1.73
2019-03-13T18:33:38.793Z,1.87
2019-03-13T18:36:39.085Z,1.07
2019-03-13T18:39:39.526Z,1.17
2019-03-13T18:42:40.354Z,1.30
2019-03-13T18:45:40.684Z,1.03
2019-03-13T18:48:41.354Z,1.63
2019-03-13T18:51:42.298Z,1.13
2019-03-13T18:54:43.541Z,1.70
2019-03-13T18:57:44.142Z,1.23
2019-03-13T19:00:44.618Z,1.83
2019-03-13T19:03:45.300Z,1.73
2019-03-13T19:06:45.834Z,1.40
2019-03-13T19:09:46.331Z,1.60
2019-03-13T19:12:46.797Z,1.83
2019-03-13T19:15:47.939Z,1.33
2019-03-13T19:18:48.671Z,1.70
2019-03-13T19:21:50.294Z,1.60
2019-03-13T19:24:51.081Z,1.80
2019-03-13T19:27:51.906Z,1.70
2019-03-13T19:30:52.254Z,1.30
2019-03-13T19:33:52.958Z,1.40
2019-03-13T19:36:53.709Z,1.83
2019-03-13T19:39:54.445Z,2.50
2019-03-13T19:42:55.336Z,3.50
2019-03-13T19:45:55.752Z,1.67
2019-03-13T19:48:56.497Z,2.23
2019-03-13T19:51:57.078Z,2.00
2019-03-13T19:54:57.551Z,2.10
2019-03-13T19:57:58.143Z,2.10
2019-03-13T20:00:58.453Z,2.30
2019-03-13T20:03:58.801Z,2.17
2019-03-13T20:06:59.171Z,2.03
2019-03-13T20:10:00.753Z,2.50
2019-03-13T20:13:02.436Z,3.20
2019-03-13T20:16:03.078Z,2.37
2019-03-13T20:19:04.431Z,2.37
2019-03-13T20:22:05.117Z,2.10
2019-03-13T20:25:05.782Z,2.27
2019-03-13T20:28:06.162Z,2.10
2019-03-13T20:31:06.515Z,2.43
2019-03-13T20:34:07.050Z,2.80
2019-03-13T20:37:08.037Z,2.03
2019-03-13T20:40:08.441Z,2.50
2019-03-13T20:43:08.965Z,1.90
2019-03-13T20:46:09.421Z,2.10
2019-03-13T20:49:09.995Z,2.00
2019-03-13T20:52:10.319Z,2.40
2019-03-13T20:55:11.174Z,3.60
2019-03-13T20:58:19.004Z,2.40
2019-03-13T21:01:26.949Z,2.77
2019-03-13T21:04:27.333Z,2.83
2019-03-13T21:07:28.038Z,2.40
2019-03-13T21:10:28.478Z,2.53
2019-03-13T21:13:29.005Z,2.77
2019-03-13T21:16:29.365Z,3.00
2019-03-13T21:19:29.805Z,3.10
2019-03-13T21:22:30.295Z,3.37
2019-03-13T21:25:30.875Z,2.67
2019-03-13T21:28:31.455Z,2.57
2019-03-13T21:31:32.210Z,2.33
2019-03-13T21:34:32.990Z,2.00
2019-03-13T21:37:33.553Z,2.60
2019-03-13T21:40:34.285Z,2.00
2019-03-13T21:43:34.684Z,1.97
2019-03-13T21:46:35.455Z,1.93
2019-03-13T21:49:36.003Z,1.63
2019-03-13T21:52:36.927Z,1.70
2019-03-13T21:55:38.263Z,1.60
2019-03-13T21:58:38.729Z,1.20
2019-03-13T22:01:39.671Z,1.50
2019-03-13T22:04:40.193Z,1.80
2019-03-13T22:07:41.170Z,1.70
2019-03-13T22:10:41.546Z,1.60
2019-03-13T22:13:42.124Z,2.13
2019-03-13T22:16:42.376Z,1.23
2019-03-13T22:19:43.674Z,1.57
2019-03-13T22:22:44.047Z,1.63
2019-03-13T22:25:45.061Z,1.70
2019-03-13T22:28:45.694Z,1.53
2019-03-13T22:31:46.440Z,1.90
2019-03-13T22:34:46.992Z,1.57
2019-03-13T22:37:47.549Z,1.67
2019-03-13T22:40:48.127Z,2.00
2019-03-13T22:43:48.722Z,1.80
2019-03-13T22:46:50.469Z,2.27
2019-03-13T22:49:51.002Z,2.27
2019-03-13T22:52:51.903Z,2.00
2019-03-13T22:55:52.481Z,2.10
2019-03-13T22:58:52.935Z,2.20
2019-03-13T23:01:54.083Z,2.47
2019-03-13T23:04:54.441Z,2.53
2019-03-13T23:07:54.756Z,2.70
2019-03-13T23:10:55.688Z,2.33
2019-03-13T23:13:56.374Z,2.13
2019-03-13T23:16:57.206Z,2.33
2019-03-13T23:19:57.669Z,2.60
2019-03-13T23:22:58.278Z,2.43
2019-03-13T23:25:58.796Z,2.60
2019-03-13T23:28:59.694Z,2.80
2019-03-13T23:32:00.224Z,2.33
2019-03-13T23:35:03.907Z,2.67
2019-03-13T23:38:03.693Z,2.47
2019-03-13T23:41:04.457Z,1.97
2019-03-13T23:44:05.047Z,2.70
2019-03-13T23:47:05.423Z,1.93
2019-03-13T23:50:06.145Z,2.10
2019-03-13T23:53:06.717Z,2.07
2019-03-13T23:56:07.441Z,1.77
2019-03-13T23:59:08.070Z,1.50
